This is the latest recevied weather packets stored in our database for station/object VE3DVC. If no packets are shown the sender has not sent any weather packets the latest 10 day(s).
| Time | Temp. | Humidity | Pressure | Rain* | Wind** | Luminosity | Snow |
|---|---|---|---|---|---|---|---|
| 1777956072 | 13.89° C | 91% | 1002.1 hPa | 0.51 mm | - | - | - |
| 1777955351 | 13.89° C | 91% | 1002.4 hPa | 0.51 mm | - | - | - |
| 1777953609 | 13.89° C | 88% | 1003 hPa | 0.25 mm | - | - | - |
| 1777952889 | 14.44° C | 87% | 1003 hPa | 0.25 mm | - | - | - |
| 1777952169 | 14.44° C | 85% | 1002.6 hPa | 0.25 mm | - | - | - |
| 1777951449 | 15° C | 82% | 1002.5 hPa | 0.51 mm | - | - | - |
| 1777950729 | 15° C | 80% | 1002.6 hPa | 0.51 mm | - | - | - |
| 1777950009 | 15° C | 83% | 1002.3 hPa | 0.51 mm | - | - | - |
| 1777949289 | 15.56° C | 83% | 1002.4 hPa | 0.25 mm | - | - | - |
| 1777948568 | 16.11° C | 81% | 1002.3 hPa | 0 mm | - | - | - |
| 1777947582 | 16.67° C | 76% | 1001.9 hPa | 0 mm | - | - | - |
| 1777946862 | 16.67° C | 75% | 1001.6 hPa | 0 mm | - | - | - |
| 1777946143 | 16.67° C | 75% | 1001.6 hPa | 0 mm | - | - | - |
| 1777945423 | 16.67° C | 74% | 1001.5 hPa | 0 mm | - | - | - |
| 1777944702 | 17.22° C | 73% | 1001.7 hPa | 0 mm | - | - | - |
| 1777943506 | 17.22° C | 70% | 1001.7 hPa | 0 mm | - | - | - |
| 1777942785 | 17.78° C | 67% | 1001.6 hPa | 0 mm | - | - | - |
| 1777942065 | 18.33° C | 64% | 1001.7 hPa | 0 mm | - | - | - |
| 1777941033 | 19.44° C | 56% | 1002.1 hPa | 0 mm | - | - | - |
| 1777940312 | 19.44° C | 55% | 1001.5 hPa | 0 mm | - | - | - |
| 1777939184 | 20° C | 52% | 1001.4 hPa | 0 mm | - | - | - |
| 1777938463 | 20.56° C | 50% | 1001.5 hPa | 0 mm | - | - | - |
| 1777937743 | 20.56° C | 49% | 1001.5 hPa | 0 mm | - | - | - |
| 1777937024 | 21.11° C | 47% | 1001.6 hPa | 0 mm | - | - | - |
| 1777936304 | 21.11° C | 46% | 1001.9 hPa | 0 mm | - | - | - |
* Rain latest hour (hover to see other rain measurements)
** Current wind speed in m/s (hover to see current wind gust speed)